Time;durP1;ratioP1;P1;durP2;ratioP2;P2;SDS_P1;SDS_P2;PMS_P1;PMS_P2;Temp;Humidity;BMP_temperature;BMP_pressure;BME280_temperature;BME280_humidity;BME280_pressure;Samples;Min_cycle;Max_cycle;Signal;HPM_P1;HPM_P2
2023/10/25 00:00:13;;;;;;;12.15;3.47;;;;;;;12.84;63.46;94379.63;5069402;28;20037;-73
2023/10/25 00:02:38;;;;;;;7.90;3.15;;;;;;;12.72;63.07;94350.38;5070901;28;20043;-72
2023/10/25 00:05:04;;;;;;;7.03;2.83;;;;;;;12.82;63.27;94371.97;5072020;28;20047;-72
2023/10/25 00:07:29;;;;;;;7.00;2.80;;;;;;;12.95;62.89;94379.38;5071349;28;20107;-72
2023/10/25 00:09:55;;;;;;;8.93;2.95;;;;;;;12.88;63.54;94375.75;5052415;28;20028;-72
2023/10/25 00:12:21;;;;;;;9.77;3.28;;;;;;;12.84;63.41;94375.25;5072030;28;20036;-72
2023/10/25 00:14:46;;;;;;;11.20;3.92;;;;;;;12.49;63.20;94314.38;5070925;28;20116;-72
2023/10/25 00:17:12;;;;;;;8.23;2.97;;;;;;;12.95;62.67;94361.13;5068460;28;20031;-72
2023/10/25 00:19:37;;;;;;;9.20;2.88;;;;;;;13.04;62.49;94348.97;5045509;28;20048;-72
2023/10/25 00:22:03;;;;;;;9.07;3.20;;;;;;;12.84;62.56;94317.91;5042336;28;20032;-72
2023/10/25 00:24:28;;;;;;;6.78;2.83;;;;;;;12.97;62.60;94327.91;5070301;28;20032;-72
2023/10/25 00:26:53;;;;;;;11.60;3.53;;;;;;;13.00;62.76;94324.19;5069934;28;20503;-72
2023/10/25 00:29:19;;;;;;;5.70;2.75;;;;;;;12.90;63.23;94316.47;5070103;28;20441;-72
2023/10/25 00:31:45;;;;;;;9.07;2.88;;;;;;;12.86;63.39;94336.81;5053792;28;20032;-71
2023/10/25 00:34:10;;;;;;;10.43;2.78;;;;;;;12.92;62.56;94330.97;5070256;28;20050;-72
2023/10/25 00:36:36;;;;;;;8.48;3.17;;;;;;;12.86;62.19;94326.38;5069772;28;20118;-72
2023/10/25 00:39:01;;;;;;;11.25;2.92;;;;;;;13.02;61.89;94338.72;5070348;28;20064;-72
2023/10/25 00:41:27;;;;;;;9.48;3.38;;;;;;;12.96;61.96;94324.50;5053684;28;20028;-71
2023/10/25 00:43:53;;;;;;;9.20;3.00;;;;;;;12.73;62.54;94287.69;5071708;28;20029;-72
2023/10/25 00:46:23;;;;;;;6.60;2.88;;;;;;;12.89;63.20;94315.63;5051817;28;20045;-72
2023/10/25 00:48:48;;;;;;;6.85;2.63;;;;;;;12.75;63.40;94318.81;5053785;28;20305;-72
2023/10/25 00:51:18;;;;;;;9.10;3.40;;;;;;;12.74;63.75;94327.59;5053576;28;20426;-71
2023/10/25 00:53:48;;;;;;;6.55;2.50;;;;;;;12.78;64.04;94320.28;5035279;28;20403;-72
2023/10/25 00:56:14;;;;;;;7.18;2.97;;;;;;;12.71;64.25;94312.28;5053407;28;20059;-72
2023/10/25 00:58:40;;;;;;;7.45;2.88;;;;;;;12.86;64.15;94322.97;5052334;28;20491;-72
2023/10/25 01:01:06;;;;;;;11.30;3.28;;;;;;;12.74;64.38;94323.19;5069585;28;20059;-72
2023/10/25 01:03:31;;;;;;;7.85;3.33;;;;;;;12.76;64.49;94330.88;5051863;28;20032;-72
2023/10/25 01:05:56;;;;;;;8.82;3.03;;;;;;;12.85;63.03;94329.16;5071107;28;20021;-71
2023/10/25 01:08:22;;;;;;;11.25;3.05;;;;;;;12.91;62.62;94320.72;5036201;28;20052;-72
2023/10/25 01:10:52;;;;;;;7.43;3.03;;;;;;;13.00;62.71;94334.63;5069128;28;20036;-72
2023/10/25 01:13:18;;;;;;;6.22;2.40;;;;;;;12.88;63.05;94300.97;5031656;28;20029;-71
2023/10/25 01:15:43;;;;;;;5.47;2.65;;;;;;;13.02;63.16;94312.63;5060501;28;20035;-73
2023/10/25 01:18:09;;;;;;;5.95;2.50;;;;;;;12.99;63.44;94288.66;5068971;28;20414;-72
2023/10/25 01:20:35;;;;;;;7.95;2.60;;;;;;;12.82;62.71;94277.34;5067714;28;20037;-72
2023/10/25 01:23:00;;;;;;;6.30;2.88;;;;;;;12.92;63.19;94307.50;5069360;28;20052;-72
2023/10/25 01:25:26;;;;;;;11.38;2.72;;;;;;;13.05;63.17;94320.16;5068630;28;20028;-72
2023/10/25 01:27:51;;;;;;;8.25;3.15;;;;;;;12.81;62.94;94310.38;5070639;28;20032;-72
2023/10/25 01:30:17;;;;;;;12.93;3.30;;;;;;;12.62;63.01;94295.75;5068978;28;20029;-71
2023/10/25 01:32:42;;;;;;;11.45;2.88;;;;;;;12.59;63.76;94305.66;5052619;28;20070;-72
2023/10/25 01:35:08;;;;;;;6.50;2.70;;;;;;;12.48;64.41;94301.50;5069096;28;20499;-72
2023/10/25 01:37:34;;;;;;;7.55;3.08;;;;;;;12.54;63.90;94287.88;5052803;28;20332;-72
2023/10/25 01:39:59;;;;;;;10.85;3.33;;;;;;;12.41;64.09;94287.44;5051253;28;20396;-72
2023/10/25 01:42:24;;;;;;;6.45;2.55;;;;;;;12.72;63.61;94296.47;5068793;28;20040;-72
2023/10/25 01:44:50;;;;;;;7.10;2.60;;;;;;;12.80;63.05;94315.75;5069463;28;20024;-72
2023/10/25 01:47:15;;;;;;;6.65;2.72;;;;;;;12.72;63.77;94324.31;5035614;28;20040;-72
2023/10/25 01:49:43;;;;;;;9.52;2.90;;;;;;;12.73;63.32;94325.94;5067719;28;20056;-72
2023/10/25 01:52:08;;;;;;;8.02;2.85;;;;;;;12.67;63.18;94296.09;5068626;28;20036;-72
2023/10/25 01:54:34;;;;;;;9.68;2.63;;;;;;;12.75;62.78;94324.81;5052500;28;20036;-72
2023/10/25 01:57:00;;;;;;;13.25;3.35;;;;;;;12.84;62.85;94330.94;5051290;28;20021;-73
2023/10/25 01:59:25;;;;;;;6.88;2.72;;;;;;;12.68;63.51;94318.59;5051967;28;20040;-72
2023/10/25 02:01:51;;;;;;;9.32;2.33;;;;;;;12.66;63.79;94322.34;5052221;28;20044;-72
2023/10/25 02:04:16;;;;;;;7.47;2.60;;;;;;;12.87;62.96;94332.41;5070084;28;20028;-73
2023/10/25 02:06:42;;;;;;;6.40;2.85;;;;;;;12.83;63.60;94324.06;5069493;28;20090;-72
2023/10/25 02:09:07;;;;;;;5.07;2.58;;;;;;;12.82;62.51;94338.09;5072894;28;20025;-72
2023/10/25 02:11:32;;;;;;;7.38;2.88;;;;;;;12.71;62.65;94336.53;5055657;28;20729;-72
2023/10/25 02:13:58;;;;;;;5.78;2.58;;;;;;;12.70;62.85;94341.88;5039529;28;20585;-73
2023/10/25 02:16:23;;;;;;;9.07;2.33;;;;;;;12.71;62.35;94339.16;5054659;28;20085;-72
2023/10/25 02:18:49;;;;;;;9.10;2.78;;;;;;;12.58;63.15;94337.91;5056173;28;20048;-72
2023/10/25 02:21:14;;;;;;;8.57;2.60;;;;;;;12.75;62.96;94343.06;5072333;28;20510;-72
2023/10/25 02:23:40;;;;;;;9.02;2.80;;;;;;;12.66;62.45;94293.66;5070650;28;20029;-72
2023/10/25 02:26:05;;;;;;;10.10;2.70;;;;;;;12.70;63.07;94306.25;5024670;28;20110;-73
2023/10/25 02:28:31;;;;;;;8.45;2.53;;;;;;;12.89;63.07;94320.84;5064381;28;20113;-72
2023/10/25 02:30:56;;;;;;;8.32;2.80;;;;;;;12.92;62.96;94338.78;5072641;28;20032;-72
2023/10/25 02:33:22;;;;;;;9.43;2.80;;;;;;;12.83;62.18;94325.88;5070919;28;20433;-72
2023/10/25 02:35:47;;;;;;;7.15;2.53;;;;;;;12.96;61.95;94331.50;5072066;28;20048;-72
2023/10/25 02:38:12;;;;;;;6.95;2.40;;;;;;;12.79;62.38;94299.31;5073810;28;20039;-72
2023/10/25 02:40:38;;;;;;;9.20;2.60;;;;;;;12.79;61.46;94268.03;5072391;28;20043;-72
2023/10/25 02:43:03;;;;;;;8.20;3.00;;;;;;;12.92;61.40;94278.84;5071366;28;20033;-74
2023/10/25 02:45:29;;;;;;;7.60;2.78;;;;;;;13.04;60.85;94257.72;5055540;28;20521;-72
2023/10/25 02:47:55;;;;;;;9.23;3.13;;;;;;;13.19;60.45;94243.13;5072164;28;20051;-72
2023/10/25 02:50:20;;;;;;;6.25;2.50;;;;;;;13.13;60.65;94230.72;5038591;28;20028;-72
2023/10/25 02:52:48;;;;;;;5.28;2.53;;;;;;;12.94;61.38;94235.19;5070581;28;20024;-72
2023/10/25 02:55:15;;;;;;;9.75;3.60;;;;;;;12.93;62.20;94261.44;5055512;28;20434;-72
2023/10/25 02:57:40;;;;;;;14.13;3.50;;;;;;;12.60;62.84;94221.31;5071418;28;20033;-72
2023/10/25 03:00:06;;;;;;;7.35;3.25;;;;;;;12.71;63.12;94234.09;5037018;28;20060;-73
2023/10/25 03:02:32;;;;;;;11.55;2.95;;;;;;;12.74;62.11;94198.09;5071408;28;20020;-72
2023/10/25 03:05:00;;;;;;;12.23;2.75;;;;;;;12.85;61.95;94197.03;5071552;28;20042;-72
2023/10/25 03:07:25;;;;;;;11.77;3.33;;;;;;;12.72;62.68;94174.00;5055163;28;20024;-72
2023/10/25 03:09:51;;;;;;;7.38;2.92;;;;;;;12.88;62.27;94193.28;5070352;28;20497;-72
2023/10/25 03:12:16;;;;;;;8.75;3.67;;;;;;;12.50;63.63;94185.75;5054700;28;20070;-72
2023/10/25 03:14:42;;;;;;;12.65;3.88;;;;;;;12.65;62.96;94174.78;5072858;28;20032;-72
2023/10/25 03:17:07;;;;;;;7.10;2.78;;;;;;;12.93;60.37;94183.22;5070920;28;20029;-72
2023/10/25 03:19:33;;;;;;;10.98;3.22;;;;;;;13.53;59.32;94177.06;5070905;28;20059;-72
2023/10/25 03:21:58;;;;;;;9.68;3.00;;;;;;;13.52;59.68;94185.88;5038358;28;20525;-72
2023/10/25 03:24:24;;;;;;;16.27;4.00;;;;;;;13.30;60.11;94172.44;5035564;28;20787;-72
2023/10/25 03:26:49;;;;;;;9.95;3.97;;;;;;;13.39;60.33;94184.53;5070972;28;20044;-72
2023/10/25 03:29:15;;;;;;;11.88;3.55;;;;;;;13.58;60.08;94196.47;5069314;28;20035;-72
2023/10/25 03:31:40;;;;;;;14.70;4.50;;;;;;;13.17;60.10;94161.63;5051462;28;20033;-72
2023/10/25 03:34:06;;;;;;;16.98;4.60;;;;;;;13.06;61.05;94180.97;5042129;28;20033;-72
2023/10/25 03:36:31;;;;;;;13.25;4.05;;;;;;;12.80;61.20;94134.13;5054234;28;20418;-72
2023/10/25 03:38:57;;;;;;;10.77;3.55;;;;;;;12.94;61.51;94143.94;5070461;28;20061;-73
2023/10/25 03:41:22;;;;;;;11.80;4.95;;;;;;;13.10;61.68;94176.28;5070674;28;20422;-72
2023/10/25 03:43:48;;;;;;;13.57;5.43;;;;;;;13.05;61.46;94157.69;5036605;28;20028;-72
2023/10/25 03:46:13;;;;;;;15.43;5.43;;;;;;;13.00;61.57;94159.94;5070195;28;20037;-72
2023/10/25 03:48:39;;;;;;;12.18;4.25;;;;;;;13.15;61.62;94163.59;5070922;28;20407;-73
2023/10/25 03:51:05;;;;;;;12.95;4.22;;;;;;;13.24;61.32;94167.03;5070106;28;20486;-73
2023/10/25 03:53:32;;;;;;;13.10;4.13;;;;;;;12.87;62.30;94182.06;5037702;28;20028;-72
2023/10/25 03:55:57;;;;;;;10.90;4.53;;;;;;;12.80;62.57;94180.22;5054495;28;20604;-72
2023/10/25 03:58:23;;;;;;;8.13;4.13;;;;;;;12.73;63.49;94208.69;5070243;28;20024;-72
2023/10/25 04:00:59;;;;;;;11.68;4.43;;;;;;;12.93;62.68;94211.91;5070758;28;20032;-72
2023/10/25 04:03:25;;;;;;;9.65;4.50;;;;;;;12.96;62.18;94220.22;5070668;28;20059;-73
2023/10/25 04:05:50;;;;;;;14.45;4.47;;;;;;;12.86;62.40;94216.91;5071912;28;20036;-73
2023/10/25 04:08:16;;;;;;;11.45;4.28;;;;;;;12.73;62.86;94201.69;5070613;28;20040;-72
2023/10/25 04:10:41;;;;;;;14.50;4.57;;;;;;;12.78;62.39;94201.22;5053997;28;20035;-72
2023/10/25 04:13:07;;;;;;;12.10;4.45;;;;;;;12.20;64.58;94183.59;5050613;28;20033;-73
2023/10/25 04:15:35;;;;;;;13.45;4.43;;;;;;;12.43;64.14;94179.53;5050791;28;20025;-72
2023/10/25 04:18:01;;;;;;;17.23;4.40;;;;;;;12.52;63.85;94199.44;5053762;28;20048;-72
2023/10/25 04:20:31;;;;;;;10.20;4.35;;;;;;;12.58;63.79;94192.00;5053734;28;20029;-73
2023/10/25 04:22:56;;;;;;;16.35;4.30;;;;;;;12.72;63.60;94187.00;5037475;28;20028;-72
2023/10/25 04:25:22;;;;;;;11.20;3.90;;;;;;;12.62;63.50;94170.69;5070666;28;20025;-72
2023/10/25 04:27:47;;;;;;;9.07;4.13;;;;;;;12.67;63.52;94181.44;5069832;28;20107;-72
2023/10/25 04:30:13;;;;;;;7.72;3.70;;;;;;;12.81;63.70;94192.28;5050177;28;20557;-73
2023/10/25 04:32:38;;;;;;;9.80;4.32;;;;;;;12.84;63.62;94198.00;5019864;28;20103;-73
2023/10/25 04:35:04;;;;;;;11.88;4.28;;;;;;;12.49;63.98;94183.31;5071625;28;20033;-72
2023/10/25 04:37:29;;;;;;;11.82;4.20;;;;;;;12.66;64.13;94187.66;5069184;28;20017;-73
2023/10/25 04:39:55;;;;;;;13.45;3.92;;;;;;;12.67;63.99;94178.84;5053875;28;20098;-72
2023/10/25 04:42:20;;;;;;;8.45;3.95;;;;;;;12.73;64.00;94186.06;5053595;28;20032;-72
2023/10/25 04:44:45;;;;;;;7.25;3.25;;;;;;;12.85;64.30;94178.78;5070525;28;20086;-72
2023/10/25 04:47:11;;;;;;;9.13;3.53;;;;;;;12.86;63.20;94172.59;5070201;28;20483;-73
2023/10/25 04:49:36;;;;;;;11.70;3.95;;;;;;;12.65;63.73;94156.53;5053653;28;20040;-73
2023/10/25 04:52:02;;;;;;;10.30;4.00;;;;;;;12.79;63.76;94152.50;5070183;28;20039;-73
2023/10/25 04:54:27;;;;;;;9.30;4.10;;;;;;;12.81;63.18;94140.16;5069848;28;20028;-72
2023/10/25 04:56:53;;;;;;;11.13;3.53;;;;;;;12.72;63.34;94139.31;5070040;28;20024;-72
2023/10/25 04:59:19;;;;;;;10.65;4.10;;;;;;;12.61;63.71;94095.28;5070011;28;20039;-73
2023/10/25 05:01:44;;;;;;;8.80;3.72;;;;;;;12.93;63.65;94138.91;5070958;28;20036;-73
2023/10/25 05:04:09;;;;;;;11.65;4.32;;;;;;;13.09;63.84;94125.09;5069560;28;20036;-73
2023/10/25 05:06:35;;;;;;;12.82;3.88;;;;;;;12.94;64.01;94099.63;5069980;28;20075;-72
2023/10/25 05:09:01;;;;;;;9.65;3.58;;;;;;;12.87;64.07;94093.44;5053221;28;20044;-73
2023/10/25 05:11:28;;;;;;;13.23;4.10;;;;;;;13.20;63.44;94130.00;5065578;28;20036;-74
2023/10/25 05:13:53;;;;;;;11.00;3.30;;;;;;;13.15;62.42;94127.09;5056064;28;20028;-73
2023/10/25 05:16:19;;;;;;;9.63;3.60;;;;;;;13.21;62.36;94109.97;5062602;28;20410;-73
2023/10/25 05:18:45;;;;;;;10.65;3.65;;;;;;;13.32;61.85;94128.78;5064502;28;20123;-73
2023/10/25 05:21:10;;;;;;;9.52;3.72;;;;;;;13.39;61.58;94155.03;5067235;28;20040;-74
2023/10/25 05:23:36;;;;;;;9.98;3.53;;;;;;;13.10;62.56;94117.13;5048469;28;20033;-72
2023/10/25 05:26:02;;;;;;;8.38;3.92;;;;;;;13.29;62.28;94134.31;5049931;28;20020;-73
2023/10/25 05:28:31;;;;;;;13.48;4.20;;;;;;;13.15;62.63;94120.06;5064315;28;20452;-73
2023/10/25 05:31:06;;;;;;;7.65;3.35;;;;;;;13.37;62.03;94128.28;5065251;28;20044;-72
2023/10/25 05:33:32;;;;;;;14.30;4.10;;;;;;;13.43;61.94;94126.81;5049041;28;20024;-72
2023/10/25 05:35:59;;;;;;;11.68;4.88;;;;;;;13.55;62.09;94160.28;5029467;28;20078;-73
2023/10/25 05:38:25;;;;;;;17.33;5.97;;;;;;;13.41;62.32;94166.94;5047480;28;20124;-72
2023/10/25 05:40:51;;;;;;;13.05;5.43;;;;;;;13.57;62.33;94168.75;5048201;28;20029;-72
2023/10/25 05:43:17;;;;;;;11.10;5.15;;;;;;;13.59;62.61;94152.94;5048621;28;20107;-72
2023/10/25 05:45:43;;;;;;;11.70;3.78;;;;;;;13.51;62.13;94143.31;5048551;28;20037;-73
2023/10/25 05:48:11;;;;;;;11.63;3.60;;;;;;;13.42;62.23;94152.09;5064737;28;20024;-73
2023/10/25 05:50:37;;;;;;;11.85;3.60;;;;;;;13.62;62.58;94168.25;5048744;28;20480;-73
2023/10/25 05:53:03;;;;;;;13.60;4.80;;;;;;;13.60;62.76;94149.38;5065561;28;20043;-72
2023/10/25 05:55:28;;;;;;;14.90;4.93;;;;;;;13.35;62.85;94117.22;5062599;28;20036;-72
2023/10/25 05:57:57;;;;;;;8.90;3.83;;;;;;;13.54;62.80;94147.38;5064544;28;20040;-72
2023/10/25 06:00:24;;;;;;;8.82;3.42;;;;;;;13.50;63.00;94138.25;5048733;28;20079;-73
2023/10/25 06:02:49;;;;;;;7.40;3.70;;;;;;;13.58;63.35;94146.91;5048201;28;20564;-73
2023/10/25 06:05:15;;;;;;;11.05;3.50;;;;;;;13.54;63.63;94147.38;5065236;28;20070;-73
2023/10/25 06:07:41;;;;;;;16.98;6.47;;;;;;;13.52;63.16;94175.44;5063582;28;20031;-72
2023/10/25 06:10:07;;;;;;;15.48;6.00;;;;;;;13.74;62.80;94171.41;5061740;28;20041;-73
2023/10/25 06:12:33;;;;;;;17.42;5.72;;;;;;;13.73;62.68;94165.34;5048540;28;20050;-72
2023/10/25 06:14:58;;;;;;;19.17;5.68;;;;;;;13.72;62.30;94150.66;5066716;28;20087;-74
2023/10/25 06:17:23;;;;;;;16.60;4.85;;;;;;;13.87;63.05;94148.22;5065027;28;20060;-73
2023/10/25 06:19:52;;;;;;;12.18;4.20;;;;;;;13.97;62.07;94142.84;5048406;28;20044;-73
2023/10/25 06:22:17;;;;;;;17.00;5.00;;;;;;;14.07;62.55;94165.22;5065999;28;20036;-73
2023/10/25 06:24:43;;;;;;;14.65;5.03;;;;;;;14.09;63.02;94188.53;5065592;28;20024;-73
2023/10/25 06:27:08;;;;;;;17.30;4.60;;;;;;;14.19;62.11;94178.75;5065070;28;21040;-73
2023/10/25 06:29:34;;;;;;;13.10;4.22;;;;;;;13.98;62.79;94149.69;5063707;28;20037;-73
2023/10/25 06:32:00;;;;;;;15.43;4.05;;;;;;;14.26;61.24;94140.53;5049881;28;20048;-73
2023/10/25 06:34:25;;;;;;;14.20;4.65;;;;;;;14.26;61.53;94161.44;5047036;28;20036;-73
2023/10/25 06:36:51;;;;;;;14.50;4.20;;;;;;;14.27;61.19;94168.28;5063117;28;20078;-73
2023/10/25 06:39:17;;;;;;;15.48;4.65;;;;;;;14.61;60.75;94179.53;5048170;28;20454;-73
2023/10/25 06:41:43;;;;;;;16.02;4.68;;;;;;;14.55;60.44;94164.53;5027994;28;20427;-76
2023/10/25 06:44:09;;;;;;;18.70;4.50;;;;;;;14.27;61.46;94134.31;5047546;28;20028;-73
2023/10/25 06:46:34;;;;;;;16.75;6.25;;;;;;;14.65;61.08;94168.56;5064206;28;20390;-73
2023/10/25 06:49:00;;;;;;;17.17;5.30;;;;;;;14.63;61.80;94173.16;5043232;28;20033;-73
2023/10/25 06:51:26;;;;;;;15.82;6.18;;;;;;;14.81;61.41;94175.56;5048234;28;20036;-73
2023/10/25 06:53:52;;;;;;;15.90;5.50;;;;;;;15.02;59.95;94180.22;5049955;28;20680;-73
2023/10/25 06:56:18;;;;;;;19.83;6.00;;;;;;;14.91;60.39;94172.75;5047073;28;20102;-73
2023/10/25 06:58:43;;;;;;;10.80;4.75;;;;;;;15.01;59.82;94165.50;5065710;28;20482;-73
2023/10/25 07:01:11;;;;;;;14.73;4.00;;;;;;;15.11;57.95;94142.59;5051437;28;20036;-73
2023/10/25 07:03:37;;;;;;;11.63;3.90;;;;;;;15.39;56.96;94156.00;5052016;28;20025;-73
2023/10/25 07:06:03;;;;;;;12.57;4.05;;;;;;;15.32;57.02;94147.22;5068072;28;20432;-73
2023/10/25 07:08:29;;;;;;;10.60;3.53;;;;;;;15.38;57.94;94154.38;5065326;28;20055;-73
2023/10/25 07:10:58;;;;;;;16.70;4.07;;;;;;;15.70;57.86;94167.47;5061770;28;20040;-73
2023/10/25 07:13:24;;;;;;;14.77;4.20;;;;;;;15.76;57.25;94177.25;5064025;28;20567;-73
2023/10/25 07:15:50;;;;;;;12.85;4.50;;;;;;;15.86;57.27;94189.13;5069050;28;20032;-74
2023/10/25 07:18:16;;;;;;;13.50;4.20;;;;;;;15.93;56.90;94210.19;5063218;28;20056;-74
2023/10/25 07:20:41;;;;;;;14.05;4.15;;;;;;;15.96;57.12;94194.13;5062330;28;20497;-73
2023/10/25 07:23:08;;;;;;;10.30;4.07;;;;;;;15.94;56.85;94183.03;5035952;28;20556;-72
2023/10/25 07:25:34;;;;;;;10.80;4.35;;;;;;;15.93;56.41;94168.28;5065686;28;20033;-73
2023/10/25 07:27:59;;;;;;;20.35;5.72;;;;;;;15.87;57.49;94187.31;5046670;28;20039;-73
2023/10/25 07:30:25;;;;;;;20.10;4.13;;;;;;;15.70;58.14;94167.47;5067909;28;20032;-74
2023/10/25 07:32:50;;;;;;;14.75;4.65;;;;;;;16.07;57.32;94169.31;5051355;28;20082;-74
2023/10/25 07:35:15;;;;;;;33.00;13.80;;;;;;;16.22;56.67;94198.22;5068641;28;20033;-74
2023/10/25 07:37:41;;;;;;;17.27;7.05;;;;;;;16.22;56.52;94213.94;5030968;28;20107;-74
2023/10/25 07:40:07;;;;;;;15.15;6.00;;;;;;;16.17;56.50;94209.22;5050800;28;20028;-74
2023/10/25 07:42:33;;;;;;;19.35;8.82;;;;;;;16.34;55.46;94220.38;5034530;28;20387;-74
2023/10/25 07:44:59;;;;;;;11.65;4.10;;;;;;;16.30;54.38;94200.75;5067334;28;20205;-74
2023/10/25 07:47:24;;;;;;;20.27;3.92;;;;;;;16.17;54.75;94196.09;5065700;28;20494;-74
2023/10/25 07:49:50;;;;;;;11.65;3.88;;;;;;;15.98;54.83;94197.38;5050682;28;20335;-74
2023/10/25 07:52:16;;;;;;;20.25;6.45;;;;;;;16.37;54.69;94217.41;5050358;28;20508;-74
2023/10/25 07:54:41;;;;;;;16.00;4.75;;;;;;;16.41;52.38;94192.47;5067721;28;20017;-74
2023/10/25 07:57:06;;;;;;;15.80;4.05;;;;;;;16.34;52.88;94217.75;5064764;28;20033;-74
2023/10/25 07:59:32;;;;;;;16.40;6.25;;;;;;;16.25;54.07;94216.19;5067392;28;20033;-74
2023/10/25 08:01:57;;;;;;;36.65;17.20;;;;;;;16.23;54.04;94211.13;5068708;28;20040;-74
2023/10/25 08:04:23;;;;;;;18.85;6.78;;;;;;;16.65;52.47;94219.44;5048904;28;20032;-74
2023/10/25 08:06:48;;;;;;;12.43;4.13;;;;;;;16.74;51.57;94197.38;5065743;28;20029;-74
2023/10/25 08:09:14;;;;;;;10.57;3.85;;;;;;;16.71;52.27;94218.72;5065483;28;20498;-74
2023/10/25 08:11:39;;;;;;;22.20;4.90;;;;;;;16.36;53.25;94200.06;5065097;28;20113;-74
2023/10/25 08:14:05;;;;;;;16.55;4.72;;;;;;;16.67;54.13;94228.75;5047298;28;20029;-72
2023/10/25 08:16:30;;;;;;;15.07;5.05;;;;;;;16.82;54.41;94222.75;5066431;28;20040;-73
2023/10/25 08:18:55;;;;;;;15.10;4.40;;;;;;;16.90;51.91;94226.09;5046480;28;20579;-73
2023/10/25 08:21:21;;;;;;;16.52;4.45;;;;;;;16.88;53.52;94217.63;5067440;28;20029;-73
2023/10/25 08:23:51;;;;;;;16.40;4.13;;;;;;;17.03;53.53;94227.31;5068151;28;20040;-72
2023/10/25 08:26:21;;;;;;;11.70;4.00;;;;;;;17.04;52.74;94224.47;5063703;28;20052;-73
2023/10/25 08:28:47;;;;;;;22.48;6.38;;;;;;;17.16;51.46;94248.47;5051295;28;20071;-73
2023/10/25 08:31:13;;;;;;;14.75;5.10;;;;;;;17.32;51.48;94231.72;5068304;28;20024;-74
2023/10/25 08:33:38;;;;;;;15.60;4.30;;;;;;;17.57;50.83;94254.03;5048949;28;20024;-74
2023/10/25 08:36:04;;;;;;;14.55;4.00;;;;;;;17.60;49.71;94234.50;5066302;28;20037;-73
2023/10/25 08:38:30;;;;;;;16.55;3.60;;;;;;;17.70;48.54;94211.38;5062567;28;20391;-73
2023/10/25 08:41:05;;;;;;;14.73;3.42;;;;;;;17.91;47.25;94220.31;5048888;28;20040;-73
2023/10/25 08:43:35;;;;;;;15.68;3.25;;;;;;;17.99;46.95;94221.00;5067408;28;20024;-73
2023/10/25 08:46:04;;;;;;;19.70;3.97;;;;;;;17.79;48.75;94235.75;5065638;28;20093;-74
2023/10/25 08:48:29;;;;;;;14.57;3.35;;;;;;;17.85;49.12;94238.44;5046560;28;20016;-73
2023/10/25 08:50:55;;;;;;;13.05;4.03;;;;;;;17.94;49.64;94233.91;5047865;28;20048;-73
2023/10/25 08:53:25;;;;;;;19.05;4.05;;;;;;;18.14;49.32;94228.84;5066734;28;20025;-73
2023/10/25 08:55:54;;;;;;;17.58;4.68;;;;;;;18.52;47.81;94239.09;5068194;28;20465;-73
2023/10/25 08:58:20;;;;;;;14.23;2.90;;;;;;;18.48;46.36;94238.66;5067086;28;20487;-73
2023/10/25 09:00:46;;;;;;;14.07;2.85;;;;;;;18.37;46.42;94209.44;5069463;28;20106;-73
2023/10/25 09:03:30;;;;;;;17.67;4.25;;;;;;;18.50;46.47;94225.34;5052294;28;20505;-73
2023/10/25 09:05:55;;;;;;;18.92;2.90;;;;;;;18.86;45.69;94211.25;5068807;28;20070;-73
2023/10/25 09:08:21;;;;;;;16.40;3.55;;;;;;;18.92;45.72;94224.47;5049678;28;20086;-73
2023/10/25 09:10:57;;;;;;;23.02;4.25;;;;;;;18.77;47.22;94225.56;5067743;28;20036;-73
2023/10/25 09:13:25;;;;;;;24.52;3.83;;;;;;;18.87;47.59;94241.84;5051609;28;20033;-73
2023/10/25 09:15:50;;;;;;;16.63;3.88;;;;;;;19.28;46.94;94241.06;5064472;28;20286;-73
2023/10/25 09:18:16;;;;;;;16.23;4.65;;;;;;;19.28;45.55;94239.25;5063195;28;20541;-73
2023/10/25 09:20:41;;;;;;;18.40;3.75;;;;;;;19.35;45.12;94234.81;5067580;28;20130;-73
2023/10/25 09:23:10;;;;;;;16.35;3.85;;;;;;;19.65;43.41;94229.31;5050801;28;20031;-73
2023/10/25 09:25:39;;;;;;;15.77;3.50;;;;;;;19.74;42.50;94209.69;5049677;28;20024;-73
2023/10/25 09:28:04;;;;;;;14.93;3.55;;;;;;;19.67;44.02;94218.56;5063522;28;20448;-73
2023/10/25 09:30:30;;;;;;;20.33;3.53;;;;;;;19.64;44.76;94207.41;5069654;28;20028;-73
2023/10/25 09:32:57;;;;;;;18.23;4.13;;;;;;;19.88;44.30;94207.91;5036291;28;20078;-74
2023/10/25 09:35:22;;;;;;;24.73;4.38;;;;;;;19.91;44.21;94202.25;5067096;28;20090;-73
2023/10/25 09:37:49;;;;;;;12.00;3.55;;;;;;;19.93;43.50;94208.13;5052701;28;20024;-73
2023/10/25 09:40:14;;;;;;;20.40;3.92;;;;;;;20.06;43.37;94221.34;5070689;28;20103;-73
2023/10/25 09:42:43;;;;;;;18.13;3.50;;;;;;;20.16;44.11;94209.59;5070586;28;20029;-73
2023/10/25 09:45:08;;;;;;;17.63;5.00;;;;;;;20.08;44.56;94216.66;5023968;28;20025;-73
2023/10/25 09:47:38;;;;;;;22.65;4.25;;;;;;;20.36;44.80;94217.53;5052736;28;20094;-73
2023/10/25 09:50:08;;;;;;;15.50;4.00;;;;;;;20.29;45.27;94204.34;5053558;28;20422;-73
2023/10/25 09:52:34;;;;;;;13.48;3.53;;;;;;;20.28;43.97;94186.88;5051861;28;20037;-73
2023/10/25 09:55:24;;;;;;;15.52;3.70;;;;;;;20.24;44.23;94185.69;5040563;28;20070;-73
2023/10/25 09:57:51;;;;;;;19.60;3.75;;;;;;;20.70;42.66;94182.28;5069121;28;20495;-73
2023/10/25 10:00:16;;;;;;;18.40;3.83;;;;;;;20.51;44.28;94170.69;5036153;28;20032;-74
2023/10/25 10:02:44;;;;;;;16.08;4.18;;;;;;;20.56;44.68;94173.56;5064176;28;20636;-73
2023/10/25 10:05:27;;;;;;;19.70;4.75;;;;;;;20.80;41.72;94171.28;5059432;28;20436;-74
2023/10/25 10:08:05;;;;;;;19.08;4.18;;;;;;;20.66;43.00;94167.84;5052152;28;20036;-74
2023/10/25 10:10:35;;;;;;;13.68;3.83;;;;;;;20.78;43.29;94153.00;5033839;28;20029;-76
2023/10/25 10:13:13;;;;;;;21.90;5.85;;;;;;;21.10;43.35;94169.00;5038319;28;20116;-74
2023/10/25 10:16:01;;;;;;;19.02;3.70;;;;;;;21.12;43.27;94148.50;5032575;28;20037;-74
2023/10/25 10:18:37;;;;;;;19.42;3.70;;;;;;;20.88;42.75;94128.84;5048528;28;20052;-74
2023/10/25 10:21:07;;;;;;;15.55;3.88;;;;;;;20.68;44.74;94150.81;5048002;28;20064;-74
2023/10/25 10:23:37;;;;;;;21.23;4.50;;;;;;;20.77;44.90;94154.03;5049512;28;20046;-74
2023/10/25 10:26:02;;;;;;;16.77;3.90;;;;;;;20.64;44.38;94148.75;5070253;28;20395;-74
2023/10/25 10:28:46;;;;;;;22.02;4.55;;;;;;;20.65;43.43;94124.03;5071982;28;20063;-74
2023/10/25 10:31:12;;;;;;;15.23;3.78;;;;;;;20.60;43.00;94126.47;5057331;28;20020;-74
2023/10/25 10:33:48;;;;;;;15.00;3.63;;;;;;;20.67;44.78;94148.34;5056173;28;20024;-74
2023/10/25 10:36:24;;;;;;;19.10;3.88;;;;;;;20.63;44.15;94132.13;5072734;28;20029;-75
2023/10/25 10:39:21;;;;;;;15.15;3.70;;;;;;;20.71;43.03;94102.09;5072436;28;20041;-74
2023/10/25 10:41:46;;;;;;;20.52;4.00;;;;;;;21.00;42.54;94100.78;5064368;28;20033;-74
2023/10/25 10:44:12;;;;;;;22.23;3.80;;;;;;;20.72;43.65;94112.41;5066620;28;20028;-74
2023/10/25 10:47:01;;;;;;;18.48;3.67;;;;;;;20.85;43.43;94093.13;5055732;28;20521;-74
2023/10/25 10:49:30;;;;;;;23.27;4.22;;;;;;;21.19;42.69;94117.56;5071467;28;20087;-74
2023/10/25 10:51:56;;;;;;;25.80;4.53;;;;;;;20.93;42.94;94106.09;5041781;28;20041;-73
2023/10/25 10:54:21;;;;;;;17.38;4.03;;;;;;;21.13;43.37;94097.28;5035881;28;20036;-72
2023/10/25 10:56:47;;;;;;;23.80;4.47;;;;;;;21.18;43.38;94097.47;5037625;28;20037;-72
2023/10/25 10:59:12;;;;;;;29.40;4.20;;;;;;;21.27;41.23;94088.28;5036842;28;20025;-73
2023/10/25 11:01:38;;;;;;;35.53;4.90;;;;;;;21.07;41.97;94054.03;5052170;28;20064;-73
2023/10/25 11:04:03;;;;;;;30.92;4.90;;;;;;;21.34;41.03;94085.59;5068929;28;20021;-73
2023/10/25 11:06:29;;;;;;;29.95;5.80;;;;;;;21.22;41.74;94090.75;5053124;28;20036;-72
2023/10/25 11:08:58;;;;;;;32.10;4.72;;;;;;;21.06;41.97;94085.94;5073248;28;20412;-72
2023/10/25 11:11:23;;;;;;;26.52;5.22;;;;;;;21.10;42.07;94073.94;5055660;28;20045;-73
2023/10/25 11:13:49;;;;;;;28.65;5.28;;;;;;;21.06;41.40;94030.47;5071855;28;20156;-73
2023/10/25 11:16:14;;;;;;;28.08;5.18;;;;;;;21.36;41.64;94076.44;5055247;28;20583;-72
2023/10/25 11:18:40;;;;;;;22.88;4.57;;;;;;;21.66;41.79;94086.47;5072306;28;20480;-73
2023/10/25 11:21:05;;;;;;;29.35;5.38;;;;;;;21.64;42.80;94085.88;5071826;28;20033;-73
2023/10/25 11:23:30;;;;;;;24.98;4.43;;;;;;;21.60;41.40;94071.47;5038246;28;20036;-72